createdAt,value
2023-02-11T09:08:37.760Z,57.50
2023-02-11T09:16:46.467Z,55.68
2023-02-11T09:19:21.891Z,54.85
2023-02-11T09:21:51.717Z,54.21
2023-02-11T09:24:27.443Z,54.01
2023-02-11T09:26:55.747Z,53.32
2023-02-11T09:29:22.428Z,52.94
2023-02-11T09:31:50.044Z,52.64
2023-02-11T09:34:24.956Z,52.78
2023-02-11T09:39:40.872Z,52.10
2023-02-11T09:42:37.588Z,50.57
2023-02-11T09:51:00.408Z,48.49
2023-02-11T09:53:29.868Z,49.53
2023-02-11T09:55:59.558Z,49.90
2023-02-11T09:58:30.036Z,49.67
2023-02-11T10:01:04.035Z,50.17
2023-02-11T10:03:48.115Z,48.31
2023-02-11T10:06:38.971Z,46.97
2023-02-11T10:09:21.595Z,47.33
2023-02-11T10:11:55.837Z,47.46
2023-02-11T10:14:43.546Z,46.98
2023-02-11T10:17:21.004Z,46.58
2023-02-11T10:20:02.038Z,46.16
2023-02-11T10:22:33.639Z,46.52
2023-02-11T10:25:06.048Z,46.59
2023-02-11T10:27:34.767Z,46.73
2023-02-11T10:30:11.796Z,45.84
2023-02-11T10:32:44.075Z,45.12
2023-02-11T10:35:15.415Z,44.40
2023-02-11T10:37:44.450Z,43.76
2023-02-11T10:40:14.539Z,42.96
2023-02-11T10:42:44.239Z,43.02
2023-02-11T10:45:22.105Z,43.14
2023-02-11T10:47:48.813Z,41.93
2023-02-11T10:50:22.850Z,40.28
2023-02-11T10:52:50.025Z,39.49
2023-02-11T10:55:18.246Z,39.99
2023-02-11T10:57:52.570Z,40.30
2023-02-11T11:00:37.082Z,39.89
2023-02-11T11:03:05.875Z,39.91
2023-02-11T11:05:35.915Z,39.28
2023-02-11T11:08:05.515Z,39.87
2023-02-11T11:10:36.153Z,39.59
2023-02-11T11:13:03.272Z,40.05
2023-02-11T11:15:30.985Z,39.92
2023-02-11T11:18:21.954Z,39.07
2023-02-11T11:20:58.497Z,38.75
2023-02-11T11:23:25.940Z,38.00
2023-02-11T11:26:02.609Z,38.06
2023-02-11T11:28:33.250Z,38.50
2023-02-11T11:31:01.070Z,38.09
2023-02-11T11:33:33.788Z,38.02
2023-02-11T11:36:05.223Z,38.08
2023-02-11T11:38:34.683Z,38.50
2023-02-11T11:41:28.484Z,38.55
2023-02-11T11:43:57.489Z,38.53
2023-02-11T11:46:26.856Z,38.33
2023-02-11T11:49:00.851Z,37.49
2023-02-11T11:51:29.178Z,37.57
2023-02-11T11:54:00.653Z,37.32
2023-02-11T11:56:30.194Z,37.53
2023-02-11T11:58:57.171Z,38.19
2023-02-11T12:01:34.722Z,38.00
2023-02-11T12:04:43.915Z,37.44
2023-02-11T12:07:26.839Z,37.93
2023-02-11T12:10:09.920Z,37.84
2023-02-11T12:12:46.503Z,37.83
2023-02-11T12:15:29.301Z,37.84
2023-02-11T12:18:17.379Z,38.05
2023-02-11T12:21:03.678Z,37.49
2023-02-11T12:23:44.412Z,38.00
2023-02-11T12:26:15.781Z,37.76
2023-02-11T12:28:55.416Z,37.71
2023-02-11T12:31:35.285Z,38.12
2023-02-11T12:34:24.502Z,38.29
2023-02-11T12:37:03.015Z,38.11
2023-02-11T12:39:40.165Z,38.01
2023-02-11T12:42:45.421Z,37.94
2023-02-11T12:45:27.958Z,38.01
2023-02-11T12:48:07.343Z,37.75
2023-02-11T12:50:42.401Z,37.68
2023-02-11T12:53:25.772Z,37.54
2023-02-11T12:56:05.062Z,38.33
2023-02-11T12:58:44.917Z,37.06
2023-02-11T13:01:20.693Z,37.78
2023-02-11T13:03:53.382Z,37.46
2023-02-11T13:06:27.683Z,37.69
2023-02-11T13:09:00.352Z,37.48
2023-02-11T13:11:30.211Z,37.97
2023-02-11T13:14:02.150Z,37.87
2023-02-11T13:16:35.331Z,36.73
2023-02-11T13:19:10.227Z,34.89
2023-02-11T13:22:00.456Z,35.22
2023-02-11T13:24:34.699Z,34.78
2023-02-11T13:27:10.570Z,34.69
2023-02-11T13:29:49.379Z,35.88
2023-02-11T13:32:16.143Z,35.06
2023-02-11T13:34:58.094Z,35.33
2023-02-11T13:37:27.418Z,34.59
2023-02-11T13:40:01.709Z,34.26
2023-02-11T13:42:32.919Z,34.30
2023-02-11T13:45:01.502Z,34.00
2023-02-11T13:47:37.915Z,34.04
2023-02-11T13:50:08.297Z,33.46
2023-02-11T13:52:41.144Z,33.95
2023-02-11T13:55:19.826Z,33.62
2023-02-11T13:58:17.383Z,33.33
2023-02-11T14:00:53.443Z,33.27
2023-02-11T14:04:19.943Z,32.89
2023-02-11T14:07:45.519Z,32.47
2023-02-11T14:11:01.103Z,31.80
2023-02-11T14:13:33.639Z,32.82
2023-02-11T14:16:09.404Z,33.32
2023-02-11T14:18:59.589Z,34.23
2023-02-11T14:21:37.704Z,33.22
2023-02-11T14:24:45.011Z,33.65
2023-02-11T14:27:21.798Z,34.22
2023-02-11T14:30:03.380Z,34.54
2023-02-11T14:32:47.743Z,33.54
2023-02-11T14:35:38.344Z,34.03
2023-02-11T14:38:15.694Z,34.09
2023-02-11T14:40:54.157Z,34.01
2023-02-11T14:43:29.367Z,33.83
2023-02-11T14:46:05.989Z,34.20
2023-02-11T14:48:39.720Z,33.82
2023-02-11T14:51:11.313Z,33.79
2023-02-11T14:53:43.581Z,33.25
2023-02-11T14:56:19.557Z,33.77
2023-02-11T14:58:57.605Z,34.23
2023-02-11T15:01:40.830Z,34.29
2023-02-11T15:04:36.514Z,33.82
2023-02-11T15:09:53.217Z,33.90
2023-02-11T15:12:40.605Z,34.03
2023-02-11T15:15:13.062Z,34.12
2023-02-11T15:17:44.442Z,34.79
2023-02-11T15:20:25.857Z,34.80
2023-02-11T15:22:57.992Z,35.00
2023-02-11T15:25:28.287Z,35.12
2023-02-11T15:28:18.283Z,35.12
2023-02-11T15:31:05.787Z,35.60
2023-02-11T15:33:38.622Z,35.17
2023-02-11T15:36:16.284Z,34.08
2023-02-11T15:38:43.818Z,34.55
2023-02-11T15:41:34.886Z,34.37
2023-02-11T15:44:02.359Z,34.73
2023-02-11T15:46:38.279Z,34.50
2023-02-11T15:49:11.658Z,34.64
2023-02-11T15:54:30.122Z,34.98
2023-02-11T15:57:03.561Z,35.70
2023-02-11T15:59:35.275Z,36.05
2023-02-11T16:02:10.362Z,36.50
2023-02-11T16:04:39.552Z,36.36
2023-02-11T16:07:38.700Z,36.64
2023-02-11T16:10:21.727Z,36.79
2023-02-11T16:12:57.856Z,37.61
2023-02-11T16:15:43.378Z,37.54
2023-02-11T16:18:37.686Z,37.88
2023-02-11T16:21:13.071Z,37.77
2023-02-11T16:23:44.547Z,38.49
2023-02-11T16:26:22.581Z,38.50
2023-02-11T16:28:52.428Z,39.11
2023-02-11T16:31:19.905Z,38.96
2023-02-11T16:33:47.881Z,39.40
2023-02-11T16:36:24.555Z,39.09
2023-02-11T16:38:54.162Z,39.85
2023-02-11T16:41:21.455Z,39.67
2023-02-11T16:43:48.484Z,39.80
2023-02-11T16:46:16.726Z,40.08
2023-02-11T16:48:45.837Z,39.74
2023-02-11T16:51:14.226Z,40.31
2023-02-11T16:53:43.451Z,40.10
2023-02-11T16:56:17.033Z,40.07
2023-02-11T16:58:44.512Z,40.39
2023-02-11T17:01:13.938Z,40.59
2023-02-11T17:03:41.189Z,40.78
2023-02-11T17:06:11.698Z,41.27
2023-02-11T17:08:39.529Z,41.26
2023-02-11T17:11:07.636Z,41.02
2023-02-11T17:13:36.172Z,41.62
2023-02-11T17:16:03.270Z,42.20
2023-02-11T17:18:30.421Z,42.09
2023-02-11T17:20:57.150Z,42.15
2023-02-11T17:23:24.380Z,42.53
2023-02-11T17:25:57.189Z,42.50
2023-02-11T17:28:25.794Z,42.33
2023-02-11T17:30:52.703Z,43.00
2023-02-11T17:33:19.467Z,42.76
2023-02-11T17:35:46.624Z,43.14
2023-02-11T17:38:13.387Z,43.12
2023-02-11T17:40:40.121Z,43.74
2023-02-11T17:43:08.364Z,43.50
2023-02-11T17:45:41.102Z,44.09
2023-02-11T17:48:08.156Z,44.45
2023-02-11T17:50:36.336Z,44.06
2023-02-11T17:53:03.374Z,44.27
2023-02-11T17:55:33.189Z,44.23
2023-02-11T17:58:01.795Z,43.93
2023-02-11T18:00:29.349Z,44.75
2023-02-11T18:03:03.957Z,44.67
2023-02-11T18:05:35.020Z,44.79
2023-02-11T18:08:02.835Z,45.06
2023-02-11T18:10:30.527Z,45.27
2023-02-11T18:12:59.519Z,45.55
2023-02-11T18:15:26.991Z,45.42
2023-02-11T18:17:53.803Z,45.66
2023-02-11T18:20:22.404Z,45.66
2023-02-11T18:22:49.534Z,45.88
2023-02-11T18:25:17.600Z,46.55
2023-02-11T18:27:44.698Z,46.14
2023-02-11T18:30:15.598Z,46.35
2023-02-11T18:32:42.751Z,46.69
2023-02-11T18:35:14.796Z,46.24
2023-02-11T18:37:43.500Z,46.49
2023-02-11T18:40:12.219Z,46.37
2023-02-11T18:42:39.919Z,46.54
2023-02-11T18:45:10.445Z,47.42
2023-02-11T18:47:41.399Z,46.73
2023-02-11T18:50:12.294Z,47.06
2023-02-11T18:52:39.893Z,47.60
2023-02-11T18:55:09.744Z,47.82
2023-02-11T18:57:37.078Z,47.63
2023-02-11T19:00:04.803Z,48.14
2023-02-11T19:02:32.174Z,47.91
2023-02-11T19:05:01.264Z,47.83
2023-02-11T19:07:28.025Z,48.45
2023-02-11T19:09:55.691Z,47.94
2023-02-11T19:12:27.137Z,48.11
2023-02-11T19:14:55.972Z,47.88
2023-02-11T19:17:23.144Z,48.19
2023-02-11T19:19:50.931Z,48.46
2023-02-11T19:22:19.362Z,47.82
2023-02-11T19:24:48.491Z,47.95
2023-02-11T19:27:15.361Z,48.09
2023-02-11T19:29:43.839Z,47.77
2023-02-11T19:32:12.620Z,47.68
2023-02-11T19:34:41.845Z,48.00
2023-02-11T19:37:11.096Z,47.80
2023-02-11T19:39:37.964Z,47.70
2023-02-11T19:42:05.288Z,47.79
2023-02-11T19:44:32.306Z,47.98
2023-02-11T19:47:01.227Z,47.99
2023-02-11T19:49:28.437Z,48.11
2023-02-11T19:51:58.269Z,48.45
2023-02-11T19:54:32.009Z,48.28
2023-02-11T19:57:00.746Z,48.59
2023-02-11T19:59:27.673Z,48.99
2023-02-11T20:01:54.712Z,48.51
2023-02-11T20:04:25.468Z,48.66
2023-02-11T20:06:52.417Z,48.84
2023-02-11T20:09:19.940Z,49.71
2023-02-11T20:11:46.815Z,49.60
2023-02-11T20:14:17.772Z,49.58
2023-02-11T20:16:49.228Z,49.60
2023-02-11T20:19:25.885Z,49.30
2023-02-11T20:21:55.850Z,49.91
2023-02-11T20:24:24.506Z,49.71
2023-02-11T20:26:55.732Z,50.11
2023-02-11T20:29:34.894Z,49.86
2023-02-11T20:32:03.812Z,50.07
2023-02-11T20:34:38.459Z,50.33
2023-02-11T20:37:09.432Z,50.51
2023-02-11T20:39:37.610Z,50.61
2023-02-11T20:42:05.794Z,50.39
2023-02-11T20:44:32.641Z,50.38
2023-02-11T20:46:59.421Z,50.35
2023-02-11T20:49:28.346Z,50.44
2023-02-11T20:51:56.993Z,50.61
2023-02-11T20:54:26.255Z,50.54
2023-02-11T20:56:55.274Z,50.66
2023-02-11T20:59:24.877Z,51.02
2023-02-11T21:01:55.954Z,51.21
2023-02-11T21:04:25.317Z,51.09
2023-02-11T21:06:55.699Z,51.21
2023-02-11T21:09:26.008Z,51.59
2023-02-11T21:11:54.217Z,51.73
2023-02-11T21:14:23.390Z,52.08
2023-02-11T21:16:52.292Z,51.86
2023-02-11T21:19:20.444Z,52.31
2023-02-11T21:21:47.901Z,52.40
2023-02-11T21:24:15.994Z,52.23
2023-02-11T21:26:46.301Z,52.35
2023-02-11T21:29:13.138Z,52.11
2023-02-11T21:31:40.794Z,51.83
2023-02-11T21:34:08.226Z,52.02
2023-02-11T21:36:35.408Z,51.93
2023-02-11T21:39:03.966Z,52.11
2023-02-11T21:41:31.975Z,52.63
2023-02-11T21:44:00.805Z,52.45
2023-02-11T21:46:28.344Z,52.10
2023-02-11T21:48:55.192Z,52.14
2023-02-11T21:51:26.791Z,52.48
2023-02-11T21:53:55.638Z,52.26
2023-02-11T21:56:26.708Z,52.44
2023-02-11T21:58:56.317Z,52.71
2023-02-11T22:01:26.625Z,52.46
2023-02-11T22:03:53.547Z,52.09
2023-02-11T22:06:22.932Z,52.07
2023-02-11T22:08:50.825Z,52.27
2023-02-11T22:11:18.740Z,52.68
2023-02-11T22:13:46.789Z,52.70
2023-02-11T22:16:17.210Z,52.86
2023-02-11T22:18:46.493Z,53.36
2023-02-11T22:21:23.239Z,53.47
2023-02-11T22:23:56.553Z,53.35
2023-02-11T22:26:25.796Z,53.65
2023-02-11T22:28:57.502Z,53.51
2023-02-11T22:31:33.069Z,53.44
2023-02-11T22:34:05.417Z,53.49
2023-02-11T22:36:34.936Z,53.77
2023-02-11T22:39:04.950Z,53.54
2023-02-11T22:41:32.319Z,53.52
2023-02-11T22:43:59.561Z,53.36
2023-02-11T22:46:28.046Z,53.51
2023-02-11T22:48:55.340Z,53.77
2023-02-11T22:51:26.418Z,54.06
2023-02-11T22:53:55.434Z,53.81
2023-02-11T22:56:24.588Z,53.59
2023-02-11T22:58:53.813Z,53.27
2023-02-11T23:01:21.228Z,53.92
2023-02-11T23:03:48.415Z,54.11
2023-02-11T23:06:15.793Z,54.10
2023-02-11T23:08:45.139Z,53.84
2023-02-11T23:11:14.541Z,53.79
2023-02-11T23:13:43.264Z,53.44
2023-02-11T23:16:13.924Z,53.46
2023-02-11T23:18:42.890Z,53.24
2023-02-11T23:21:13.250Z,53.36
2023-02-11T23:23:42.987Z,53.23
2023-02-11T23:26:14.612Z,53.43
2023-02-11T23:28:42.107Z,53.33
2023-02-11T23:31:14.980Z,53.21
2023-02-11T23:33:42.581Z,53.41
2023-02-11T23:36:10.396Z,53.74
2023-02-11T23:38:37.535Z,54.05
2023-02-11T23:41:05.592Z,54.14
2023-02-11T23:43:39.048Z,54.08
2023-02-11T23:46:07.476Z,53.90
2023-02-11T23:48:36.370Z,53.75
2023-02-11T23:51:04.418Z,53.45
2023-02-11T23:53:31.890Z,53.18
2023-02-11T23:55:58.776Z,53.18
2023-02-11T23:58:25.699Z,53.09
